General Aviation Weather

Text Reports

Enter one or more of the following location identifiers separated by a space:

Zip Code, Four-Character ICAO or Three-Character IATA airport codes.

METAR - Aviation Routine Weather Report
KICR - Winner, South Dakota
Updated at 4:53 AM GMT on December 22, 2014 (10:53 PM CST):
METAR KICR 220453Z AUTO 23007KT 10SM BKN090 OVC100 04/M01 A2944 RMK AO2 SLP979 T00391006
TAF - Terminal Area Forecast
KICR - Winner, South Dakota
Updated at 4:53 AM GMT on December 22, 2014 (10:53 PM CST):
No TAF is currently available for this location.
Decoded:
No decoded TAF is available.
PIREP - Pilot Weather Report
KICR - Winner, South Dakota
Updated at 4:53 AM GMT on December 22, 2014 (10:53 PM CST):
No PIREP is currently available for this location.
AIRMET - Airmens Meteorological Information
KICR - Winner, South Dakota
Updated at 4:53 AM GMT on December 22, 2014 (10:53 PM CST):
No AIRMET is currently available for this location.
SIGMET - Significant Meteorological Information
KICR - Winner, South Dakota
Updated at 4:53 AM GMT on December 22, 2014 (10:53 PM CST):
No SIGMET is currently available for this location.
NOTAM - Notice to Airmen
KICR - Winner, South Dakota
Updated at 4:53 AM GMT on December 22, 2014 (10:53 PM CST):
No NOTAM is currently available for this location.
Forecast Area
KICR - Winner, South Dakota
Updated at 4:53 AM GMT on December 22, 2014 (10:53 PM CST):
No NOTAM is currently available for this location.
Aviation Weather Maps